Sunday, May 27, 2018, 5:51 PM GMT
Back to Local

CWQP, Point Petre , Ont.

Location: , , Canada Lat: 43.833
Local Time: 5:51 PM GMT (17:51 GMT) Lon: -77.15
Time Zone: GMT Elev: 259 ft

Show me the last for .
Show Coded

Time T Td Feel RH Dir Speed Gust Alt SLP Vis Weather Sky Remarks
2018-05-27 17:00 61 55 - 82 160° 16 - - 29.97 0 None
2018-05-27 16:00 58 53 - 84 130° 8 - - 29.96 0 None
2018-05-27 15:00 58 54 - 84 90° 9 - - 29.96 0 None
2018-05-27 14:00 58 53 - 83 80° 16 - - 29.96 0 None
2018-05-27 13:00 58 53 - 83 80° 13 - - 29.94 0 None
2018-05-27 12:00 59 55 - 85 80° 12 - - 29.93 0 None
2018-05-27 11:00 63 59 - 88 60° 10 - - 29.91 0 None
2018-05-27 10:00 62 59 - 92 50° 10 - - 29.90 0 None
2018-05-27 09:00 62 60 - 92 60° 9 - - 29.89 0 None
2018-05-27 08:00 63 60 - 89 70° 10 - - 29.89 0 None
2018-05-27 07:00 62 60 - 95 50° 12 - - 29.88 0 None
2018-05-27 06:00 63 59 - 86 50° 13 - - 29.88 0 None
2018-05-27 05:00 63 58 - 82 70° 13 - - 29.88 0 None
2018-05-27 04:00 67 58 - 72 70° 15 - - 29.88 0 Peak wind: 19 mph (17 kts) from 70° at 43 min
1-hr Precip Total: 0.01"
2018-05-27 03:00 62 56 - 81 70° 10 - - 29.88 0 None
2018-05-27 02:00 59 54 - 85 70° 7 - - 29.88 0 None
2018-05-27 01:00 58 53 - 81 300° 3 - - 29.88 0 None
2018-05-27 00:00 68 57 - 67 40° 6 - - 29.85 0 None
2018-05-26 23:00 67 56 - 69 80° 10 - - 29.84 0 None
2018-05-26 22:00 68 56 - 65 70° 9 - - 29.82 0 None
2018-05-26 21:00 67 56 - 65 - Calm - - 29.81 0 None
2018-05-26 20:00 66 51 - 58 290° 6 - - 29.81 0 None
2018-05-26 19:00 62 52 - 68 280° 7 - - 29.82 0 None

Support USWX by starting your Amazon purchase here.